createdAt,value
2022-08-17T00:00:34.337Z,99737.78
2022-08-17T00:03:04.228Z,99733.81
2022-08-17T00:05:36.808Z,99735.91
2022-08-17T00:08:05.707Z,99731.53
2022-08-17T00:10:33.773Z,99733.44
2022-08-17T00:13:06.962Z,99728.41
2022-08-17T00:15:36.245Z,99733.00
2022-08-17T00:18:04.162Z,99728.22
2022-08-17T00:20:52.054Z,99730.75
2022-08-17T00:23:20.175Z,99728.63
2022-08-17T00:25:48.944Z,99732.41
2022-08-17T00:28:18.123Z,99729.66
2022-08-17T00:30:53.688Z,99725.69
2022-08-17T00:33:25.566Z,99728.41
2022-08-17T00:35:54.194Z,99723.00
2022-08-17T00:38:22.210Z,99724.66
2022-08-17T00:40:52.290Z,99728.41
2022-08-17T00:43:29.973Z,99731.56
2022-08-17T00:46:00.561Z,99730.09
2022-08-17T00:48:30.787Z,99732.19
2022-08-17T00:51:06.556Z,99730.31
2022-08-17T00:53:38.680Z,99729.69
2022-08-17T00:56:11.882Z,99738.22
2022-08-17T00:58:40.259Z,99722.81
2022-08-17T01:01:11.452Z,99730.94
2022-08-17T01:03:41.900Z,99734.25
2022-08-17T01:06:10.184Z,99727.41
2022-08-17T01:08:40.011Z,99722.81
2022-08-17T01:11:09.229Z,99726.34
2022-08-17T01:13:41.438Z,99722.38
2022-08-17T01:16:17.285Z,99716.53
2022-08-17T01:18:46.840Z,99725.09
2022-08-17T01:21:23.368Z,99733.19
2022-08-17T01:23:52.698Z,99723.63
2022-08-17T01:26:21.283Z,99722.81
2022-08-17T01:28:53.683Z,99720.72
2022-08-17T01:31:25.520Z,99716.13
2022-08-17T01:33:53.740Z,99718.00
2022-08-17T01:36:22.505Z,99712.19
2022-08-17T01:38:50.395Z,99717.59
2022-08-17T01:41:22.341Z,99715.94
2022-08-17T01:43:55.103Z,99726.13
2022-08-17T01:46:28.009Z,99728.19
2022-08-17T01:48:57.592Z,99726.91
2022-08-17T01:51:27.351Z,99720.47
2022-08-17T01:53:59.341Z,99723.38
2022-08-17T01:56:31.146Z,99715.47
2022-08-17T01:58:59.301Z,99717.53
2022-08-17T02:01:30.508Z,99718.81
2022-08-17T02:04:01.344Z,99717.94
2022-08-17T02:06:45.034Z,99718.81
2022-08-17T02:09:17.021Z,99717.31
2022-08-17T02:11:47.291Z,99725.22
2022-08-17T02:14:15.342Z,99722.94
2022-08-17T02:16:43.553Z,99718.72
2022-08-17T02:19:15.745Z,99717.09
2022-08-17T02:21:45.697Z,99721.03
2022-08-17T02:25:01.018Z,99721.44
2022-08-17T02:27:08.376Z,99728.53
2022-08-17T02:29:36.264Z,99728.72
2022-08-17T02:32:05.032Z,99727.03
2022-08-17T02:34:33.330Z,99734.31
2022-08-17T02:37:01.254Z,99731.38
2022-08-17T02:39:29.234Z,99729.94
2022-08-17T02:42:02.601Z,99728.47
2022-08-17T02:44:39.962Z,99723.25
2022-08-17T02:47:10.462Z,99727.22
2022-08-17T02:49:39.037Z,99729.94
2022-08-17T02:52:08.610Z,99725.16
2022-08-17T02:54:40.776Z,99720.78
2022-08-17T02:57:10.930Z,99724.94
2022-08-17T02:59:43.313Z,99721.00
2022-08-17T03:02:16.273Z,99724.94
2022-08-17T03:04:44.128Z,99725.78
2022-08-17T03:07:12.034Z,99726.78
2022-08-17T03:09:39.871Z,99718.91
2022-08-17T03:12:10.097Z,99718.03
2022-08-17T03:14:41.426Z,99713.50
2022-08-17T03:17:17.149Z,99712.00
2022-08-17T03:19:45.502Z,99714.50
2022-08-17T03:22:35.688Z,99715.72
2022-08-17T03:25:01.318Z,99715.69
2022-08-17T03:27:30.079Z,99716.94
2022-08-17T03:29:57.895Z,99709.47
2022-08-17T03:32:27.102Z,99718.78
2022-08-17T03:34:59.502Z,99714.22
2022-08-17T03:37:27.560Z,99710.25
2022-08-17T03:39:55.617Z,99703.00
2022-08-17T03:42:31.390Z,99708.41
2022-08-17T03:45:00.763Z,99711.09
2022-08-17T03:47:47.756Z,99695.06
2022-08-17T03:50:33.424Z,99699.44
2022-08-17T03:53:19.057Z,99702.75
2022-08-17T03:56:04.274Z,99700.72
2022-08-17T03:58:32.130Z,99704.88
2022-08-17T04:01:01.381Z,99708.41
2022-08-17T04:03:30.569Z,99718.41
2022-08-17T04:05:58.418Z,99729.22
2022-08-17T04:08:26.252Z,99751.09
2022-08-17T04:10:54.062Z,99788.72
2022-08-17T04:13:24.073Z,99829.50
2022-08-17T04:15:53.055Z,99819.69
2022-08-17T04:18:21.308Z,99799.25
2022-08-17T04:20:50.606Z,99781.38
2022-08-17T04:23:20.074Z,99771.56
2022-08-17T04:25:50.115Z,99789.47
2022-08-17T04:28:19.017Z,99791.38
2022-08-17T04:30:48.329Z,99787.25
2022-08-17T04:33:19.043Z,99783.09
2022-08-17T04:35:51.033Z,99785.84
2022-08-17T04:38:20.830Z,99779.63
2022-08-17T04:41:06.619Z,99772.56
2022-08-17T04:43:35.579Z,99773.19
2022-08-17T04:46:05.946Z,99780.06
2022-08-17T04:48:37.584Z,99775.78
2022-08-17T04:51:10.536Z,99770.59
2022-08-17T04:53:39.908Z,99779.34
2022-08-17T04:56:11.524Z,99787.91
2022-08-17T04:58:39.836Z,99775.00
2022-08-17T05:01:08.741Z,99791.47
2022-08-17T05:03:36.779Z,99806.88
2022-08-17T05:06:04.938Z,99785.00
2022-08-17T05:08:34.208Z,99780.25
2022-08-17T05:11:02.129Z,99792.28
2022-08-17T05:13:30.713Z,99791.09
2022-08-17T05:16:02.256Z,99782.53
2022-08-17T05:18:31.162Z,99798.63
2022-08-17T05:20:59.148Z,99804.22
2022-08-17T05:23:31.985Z,99790.28
2022-08-17T05:26:21.970Z,99798.41
2022-08-17T05:28:55.324Z,99812.97
2022-08-17T05:31:25.238Z,99802.56
2022-08-17T05:33:53.353Z,99810.09
2022-08-17T05:36:43.021Z,99811.53
2022-08-17T05:39:15.868Z,99806.97
2022-08-17T05:41:48.676Z,99804.72
2022-08-17T05:44:17.386Z,99804.09
2022-08-17T05:46:49.231Z,99793.06
2022-08-17T05:49:20.243Z,99788.25
2022-08-17T05:52:10.808Z,99782.22
2022-08-17T05:54:52.204Z,99787.41
2022-08-17T05:57:36.738Z,99786.56
2022-08-17T06:00:20.144Z,99789.50
2022-08-17T06:03:05.715Z,99788.03
2022-08-17T06:05:55.068Z,99800.72
2022-08-17T06:08:33.241Z,99805.31
2022-08-17T06:11:11.463Z,99806.16
2022-08-17T06:13:52.012Z,99807.78
2022-08-17T06:16:33.438Z,99794.69
2022-08-17T06:19:03.901Z,99793.44
2022-08-17T06:21:36.077Z,99785.09
2022-08-17T06:24:09.257Z,99772.16
2022-08-17T06:26:43.238Z,99772.81
2022-08-17T06:29:27.019Z,99784.06
2022-08-17T06:31:55.022Z,99805.31
2022-08-17T06:34:22.939Z,99818.00
2022-08-17T06:36:59.222Z,99829.09
2022-08-17T06:39:42.860Z,99831.56
2022-08-17T06:43:02.205Z,99842.66
2022-08-17T06:45:18.760Z,99832.00
2022-08-17T06:47:51.576Z,99827.00
2022-08-17T06:50:23.940Z,99823.66
2022-08-17T06:52:57.923Z,99819.91
2022-08-17T06:55:34.477Z,99815.56
2022-08-17T06:58:15.947Z,99821.16
2022-08-17T07:00:48.707Z,99825.75
2022-08-17T07:03:27.594Z,99817.41
2022-08-17T07:06:00.260Z,99834.09
2022-08-17T07:08:34.993Z,99824.28
2022-08-17T07:11:06.379Z,99828.06
2022-08-17T07:13:43.787Z,99836.38
2022-08-17T07:16:26.055Z,99846.38
2022-08-17T07:18:55.743Z,99847.25
2022-08-17T07:21:38.500Z,99842.66
2022-08-17T07:24:30.213Z,99824.94
2022-08-17T07:27:14.573Z,99815.97
2022-08-17T07:29:46.674Z,99842.22
2022-08-17T07:32:20.099Z,99842.66
2022-08-17T07:35:11.822Z,99860.56
2022-08-17T07:37:41.624Z,99842.44
2022-08-17T07:40:20.560Z,99840.97
2022-08-17T07:43:03.296Z,99862.22
2022-08-17T07:45:51.952Z,99865.16
2022-08-17T07:48:23.759Z,99858.06
2022-08-17T07:50:53.207Z,99847.44
2022-08-17T07:53:24.234Z,99838.47
2022-08-17T07:55:53.533Z,99836.78
2022-08-17T07:58:24.533Z,99823.03
2022-08-17T08:01:09.038Z,99832.22
2022-08-17T08:03:44.839Z,99830.34
2022-08-17T08:06:22.276Z,99818.44
2022-08-17T08:08:54.873Z,99830.13
2022-08-17T08:11:33.533Z,99837.22
2022-08-17T08:14:29.513Z,99851.81
2022-08-17T08:17:00.187Z,99865.38
2022-08-17T08:19:31.543Z,99860.56
2022-08-17T08:22:05.568Z,99861.59
2022-08-17T08:24:56.398Z,99853.06
2022-08-17T08:27:35.732Z,99831.78
2022-08-17T08:30:08.706Z,99837.44
2022-08-17T08:32:50.589Z,99846.81
2022-08-17T08:35:28.110Z,99864.75
2022-08-17T08:38:20.033Z,99874.31
2022-08-17T08:40:58.522Z,99879.75
2022-08-17T08:43:37.180Z,99877.66
2022-08-17T08:46:15.652Z,99889.94
2022-08-17T08:49:14.537Z,99901.00
2022-08-17T08:51:55.580Z,99897.66
2022-08-17T08:54:36.779Z,99904.34
2022-08-17T08:57:26.753Z,99899.75
2022-08-17T09:00:08.737Z,99901.63
2022-08-17T09:03:10.131Z,99885.13
2022-08-17T09:05:58.295Z,99885.53
2022-08-17T09:08:38.448Z,99891.16
2022-08-17T09:11:10.749Z,99884.47
2022-08-17T09:13:46.289Z,99892.56
2022-08-17T09:16:29.785Z,99907.78
2022-08-17T09:19:05.433Z,99915.28
2022-08-17T09:21:47.940Z,99923.00
2022-08-17T09:24:24.094Z,99932.59
2022-08-17T09:26:58.703Z,99923.81
2022-08-17T09:29:29.448Z,99920.03
2022-08-17T09:31:59.682Z,99920.81
2022-08-17T09:34:35.097Z,99894.28
2022-08-17T09:37:16.830Z,99901.59
2022-08-17T09:39:52.502Z,99893.19
2022-08-17T09:42:26.716Z,99895.91
2022-08-17T09:45:04.745Z,99902.09
2022-08-17T09:47:40.600Z,99911.06
2022-08-17T09:50:14.684Z,99937.56
2022-08-17T09:52:44.178Z,99924.72
2022-08-17T09:55:13.327Z,99926.34
2022-08-17T09:58:07.398Z,99927.38
2022-08-17T10:00:38.228Z,99921.88
2022-08-17T10:03:28.289Z,99924.19
2022-08-17T10:06:06.500Z,99911.28
2022-08-17T10:08:43.180Z,99919.25
2022-08-17T10:11:50.447Z,99913.44
2022-08-17T10:14:36.899Z,99934.94
2022-08-17T10:17:13.489Z,99940.38
2022-08-17T10:19:51.858Z,99934.94
2022-08-17T10:22:45.663Z,99942.25
2022-08-17T10:25:54.251Z,99955.19
2022-08-17T10:28:30.272Z,99937.63
2022-08-17T10:31:33.750Z,99942.00
2022-08-17T10:34:02.471Z,99947.63
2022-08-17T10:36:46.178Z,99953.03
2022-08-17T10:39:25.513Z,99939.63
2022-08-17T10:41:58.774Z,99935.19
2022-08-17T10:44:41.434Z,99940.97
2022-08-17T10:47:12.711Z,99941.06
2022-08-17T10:49:47.443Z,99939.50
2022-08-17T10:52:49.985Z,99931.66
2022-08-17T10:55:20.469Z,99929.63
2022-08-17T10:57:50.674Z,99919.69
2022-08-17T11:01:03.852Z,99922.50
2022-08-17T11:03:33.260Z,99930.28
2022-08-17T11:06:09.552Z,99928.47
2022-08-17T11:09:12.814Z,99929.78
2022-08-17T11:11:52.730Z,99938.28
2022-08-17T11:14:48.406Z,99945.31
2022-08-17T11:17:33.858Z,99943.09
2022-08-17T11:20:34.359Z,99952.38
2022-08-17T11:23:35.124Z,99950.28
2022-08-17T11:26:18.621Z,99947.16
2022-08-17T11:28:52.864Z,99955.09
2022-08-17T11:31:38.323Z,99946.97
2022-08-17T11:34:15.153Z,99947.81
2022-08-17T11:37:18.113Z,99946.06
2022-08-17T11:40:06.537Z,99939.03
2022-08-17T11:42:52.165Z,99932.41
2022-08-17T11:45:37.881Z,99931.34
2022-08-17T11:48:33.355Z,99925.53
2022-08-17T11:51:30.291Z,99925.75
2022-08-17T11:57:02.240Z,99936.84
2022-08-17T11:59:57.718Z,99926.88
2022-08-17T12:02:47.514Z,99929.72
2022-08-17T12:05:34.067Z,99948.44
2022-08-17T12:08:19.570Z,99946.78
2022-08-17T12:11:01.580Z,99944.06
2022-08-17T12:13:39.700Z,99947.16
2022-08-17T12:16:09.996Z,99943.34
2022-08-17T12:18:39.479Z,99939.19
2022-08-17T12:21:28.761Z,99935.88
2022-08-17T12:24:00.785Z,99930.88
2022-08-17T12:26:32.620Z,99927.56
2022-08-17T12:29:05.794Z,99930.88
2022-08-17T12:31:44.258Z,99928.47
2022-08-17T12:34:17.860Z,99927.28
2022-08-17T12:36:46.491Z,99925.66
2022-08-17T12:39:21.404Z,99922.91
2022-08-17T12:41:52.245Z,99921.38
2022-08-17T12:44:23.215Z,99917.94
2022-08-17T12:46:54.549Z,99901.69
2022-08-17T12:49:29.977Z,99904.78
2022-08-17T12:52:05.758Z,99905.03
2022-08-17T12:54:46.684Z,99897.28
2022-08-17T12:57:17.098Z,99898.47
2022-08-17T12:59:51.529Z,99903.78
2022-08-17T13:02:28.333Z,99895.81
2022-08-17T13:04:57.859Z,99888.19
2022-08-17T13:07:36.191Z,99875.63
2022-08-17T13:10:05.431Z,99873.56
2022-08-17T13:12:35.811Z,99880.03
2022-08-17T13:15:05.774Z,99877.13
2022-08-17T13:17:37.289Z,99864.72
2022-08-17T13:20:14.522Z,99868.72
2022-08-17T13:22:44.379Z,99872.69
2022-08-17T13:25:17.535Z,99870.69
2022-08-17T13:27:53.590Z,99863.94
2022-08-17T13:30:28.159Z,99854.97
2022-08-17T13:32:57.968Z,99857.44
2022-08-17T13:35:40.978Z,99877.09
2022-08-17T13:38:10.822Z,99876.41
2022-08-17T13:40:50.368Z,99869.94
2022-08-17T13:43:45.629Z,99861.75
2022-08-17T13:46:20.337Z,99851.91
2022-08-17T13:48:58.889Z,99849.84
2022-08-17T13:51:33.696Z,99852.94
2022-08-17T13:54:20.081Z,99849.22
2022-08-17T13:56:55.433Z,99839.63
2022-08-17T13:59:36.435Z,99833.94
2022-08-17T14:02:22.855Z,99837.81
2022-08-17T14:04:55.352Z,99834.50
2022-08-17T14:07:33.831Z,99843.69
2022-08-17T14:10:04.143Z,99834.06
2022-08-17T14:12:34.119Z,99833.53
2022-08-17T14:15:02.341Z,99825.03
2022-08-17T14:17:37.951Z,99824.00
2022-08-17T14:20:09.371Z,99812.56
2022-08-17T14:22:39.895Z,99812.56
2022-08-17T14:25:10.619Z,99815.34
2022-08-17T14:27:51.980Z,99809.03
2022-08-17T14:30:23.341Z,99808.22
2022-08-17T14:32:53.087Z,99806.31
2022-08-17T14:35:23.282Z,99808.47
2022-08-17T14:37:51.780Z,99804.88
2022-08-17T14:40:24.558Z,99805.72
2022-08-17T14:42:54.271Z,99799.38
2022-08-17T14:45:32.415Z,99801.00
2022-08-17T14:48:05.682Z,99800.47
2022-08-17T14:50:35.739Z,99801.22
2022-08-17T14:53:05.476Z,99800.09
2022-08-17T14:55:33.803Z,99804.75
2022-08-17T14:58:02.004Z,99796.28
2022-08-17T15:00:29.910Z,99793.22
2022-08-17T15:03:00.238Z,99788.03
2022-08-17T15:05:31.980Z,99792.47
2022-08-17T15:08:00.866Z,99790.53
2022-08-17T15:10:29.876Z,99784.53
2022-08-17T15:12:58.235Z,99794.13
2022-08-17T15:15:26.330Z,99798.47
2022-08-17T15:17:54.206Z,99796.28
2022-08-17T15:20:24.780Z,99801.00
2022-08-17T15:22:55.044Z,99795.78
2022-08-17T15:25:23.683Z,99793.63
2022-08-17T15:27:51.983Z,99791.97
2022-08-17T15:30:20.676Z,99803.22
2022-08-17T15:32:54.719Z,99787.81
2022-08-17T15:35:27.395Z,99784.16
2022-08-17T15:38:04.527Z,99791.00
2022-08-17T15:40:34.972Z,99784.13
2022-08-17T15:43:06.629Z,99784.34
2022-08-17T15:45:35.321Z,99782.09
2022-08-17T15:48:03.472Z,99777.97
2022-08-17T15:50:31.383Z,99774.13
2022-08-17T15:53:01.941Z,99774.94
2022-08-17T15:55:31.671Z,99777.31
2022-08-17T15:57:59.606Z,99784.41
2022-08-17T16:00:28.521Z,99792.06
2022-08-17T16:03:15.178Z,99786.78
2022-08-17T16:05:45.342Z,99785.34
2022-08-17T16:08:20.630Z,99773.72
2022-08-17T16:10:49.553Z,99779.38
2022-08-17T16:13:18.248Z,99779.63
2022-08-17T16:15:53.076Z,99773.75
2022-08-17T16:18:28.310Z,99773.97
2022-08-17T16:20:56.332Z,99786.53
2022-08-17T16:23:25.559Z,99789.59
2022-08-17T16:25:54.408Z,99793.88
2022-08-17T16:28:23.256Z,99786.69
2022-08-17T16:31:04.028Z,99785.56
2022-08-17T16:33:32.507Z,99791.25
2022-08-17T16:36:01.057Z,99790.34
2022-08-17T16:38:30.281Z,99784.00
2022-08-17T16:40:58.110Z,99782.03
2022-08-17T16:43:25.927Z,99775.66
2022-08-17T16:45:53.786Z,99771.28
2022-08-17T16:48:21.574Z,99782.13
2022-08-17T16:51:03.101Z,99774.41
2022-08-17T16:53:33.570Z,99771.38
2022-08-17T16:56:01.370Z,99774.94
2022-08-17T16:58:30.159Z,99760.69
2022-08-17T17:00:59.401Z,99769.66
2022-08-17T17:03:30.173Z,99765.50
2022-08-17T17:06:08.091Z,99771.75
2022-08-17T17:08:44.558Z,99769.81
2022-08-17T17:11:16.166Z,99767.81
2022-08-17T17:13:48.461Z,99773.00
2022-08-17T17:16:21.664Z,99766.09
2022-08-17T17:19:03.276Z,99767.44
2022-08-17T17:21:42.505Z,99760.81
2022-08-17T17:24:17.927Z,99759.41
2022-08-17T17:27:07.325Z,99753.03
2022-08-17T17:29:47.842Z,99755.22
2022-08-17T17:32:21.877Z,99752.97
2022-08-17T17:34:55.885Z,99749.66
2022-08-17T17:37:33.390Z,99735.63
2022-08-17T17:40:07.508Z,99745.16
2022-08-17T17:42:35.589Z,99745.69
2022-08-17T17:45:11.557Z,99737.97
2022-08-17T17:47:39.397Z,99736.25
2022-08-17T17:50:08.895Z,99735.09
2022-08-17T17:52:47.499Z,99730.63
2022-08-17T17:55:40.993Z,99735.75
2022-08-17T17:58:23.442Z,99731.88
2022-08-17T18:01:01.927Z,99723.88
2022-08-17T18:03:53.906Z,99737.44
2022-08-17T18:06:30.299Z,99723.94
2022-08-17T18:09:08.714Z,99730.66
2022-08-17T18:11:58.941Z,99721.53
2022-08-17T18:14:47.423Z,99722.84
2022-08-17T18:17:15.362Z,99726.06
2022-08-17T18:19:43.115Z,99737.50
2022-08-17T18:22:14.863Z,99731.47
2022-08-17T18:24:45.256Z,99733.03
2022-08-17T18:27:25.140Z,99732.13
2022-08-17T18:29:55.170Z,99742.94
2022-08-17T18:32:33.069Z,99739.28
2022-08-17T18:35:28.261Z,99750.75
2022-08-17T18:37:58.161Z,99753.34
2022-08-17T18:40:34.281Z,99760.38
2022-08-17T18:43:28.285Z,99769.56
2022-08-17T18:46:28.362Z,99775.19
2022-08-17T18:49:00.278Z,99773.44
2022-08-17T18:51:40.584Z,99774.13
2022-08-17T18:54:18.999Z,99766.66
2022-08-17T18:56:52.306Z,99767.41
2022-08-17T18:59:38.747Z,99773.56
2022-08-17T19:02:34.613Z,99783.56
2022-08-17T19:05:13.278Z,99797.09
2022-08-17T19:07:43.379Z,99802.47
2022-08-17T19:10:25.016Z,99807.22
2022-08-17T19:13:00.767Z,99809.59
2022-08-17T19:15:35.515Z,99797.16
2022-08-17T19:18:09.910Z,99801.44
2022-08-17T19:20:46.575Z,99811.16
2022-08-17T19:23:21.267Z,99802.28
2022-08-17T19:25:52.678Z,99805.81
2022-08-17T19:28:25.785Z,99809.72
2022-08-17T19:30:59.369Z,99810.44
2022-08-17T19:33:27.907Z,99812.19
2022-08-17T19:36:06.502Z,99806.38
2022-08-17T19:38:43.346Z,99809.59
2022-08-17T19:41:20.678Z,99806.72
2022-08-17T19:44:08.729Z,99807.69
2022-08-17T19:46:49.811Z,99799.25
2022-08-17T19:49:34.513Z,99799.72
2022-08-17T19:52:24.100Z,99810.00
2022-08-17T19:54:56.397Z,99809.31
2022-08-17T19:57:42.400Z,99814.59
2022-08-17T20:00:13.458Z,99819.66
2022-08-17T20:02:51.126Z,99829.84
2022-08-17T20:05:23.171Z,99829.47
2022-08-17T20:07:59.261Z,99826.59
2022-08-17T20:10:39.311Z,99819.34
2022-08-17T20:13:10.963Z,99820.28
2022-08-17T20:15:42.264Z,99812.44
2022-08-17T20:18:19.354Z,99815.25
2022-08-17T20:20:54.729Z,99814.28
2022-08-17T20:23:32.346Z,99811.41
2022-08-17T20:26:10.489Z,99813.13
2022-08-17T20:28:39.978Z,99809.00
2022-08-17T20:31:37.453Z,99803.38
2022-08-17T20:37:04.735Z,99797.88
2022-08-17T20:39:40.009Z,99804.22
2022-08-17T20:42:30.502Z,99810.09
2022-08-17T20:45:02.211Z,99814.78
2022-08-17T20:47:33.478Z,99817.59
2022-08-17T20:50:05.813Z,99816.59
2022-08-17T20:52:49.483Z,99813.75
2022-08-17T20:55:53.462Z,99810.03
2022-08-17T20:58:49.689Z,99813.44
2022-08-17T21:01:34.969Z,99808.41
2022-08-17T21:04:08.140Z,99805.69
2022-08-17T21:06:56.020Z,99808.63
2022-08-17T21:09:30.896Z,99815.38
2022-08-17T21:12:04.515Z,99813.94
2022-08-17T21:14:59.625Z,99811.00
2022-08-17T21:17:51.383Z,99812.72
2022-08-17T21:20:32.483Z,99810.47
2022-08-17T21:23:27.498Z,99812.38
2022-08-17T21:26:30.615Z,99816.72
2022-08-17T21:29:30.322Z,99823.59
2022-08-17T21:32:24.170Z,99826.94
2022-08-17T21:35:28.857Z,99825.06
2022-08-17T21:38:05.475Z,99827.59
2022-08-17T21:40:35.024Z,99828.69
2022-08-17T21:43:18.346Z,99825.56
2022-08-17T21:45:56.209Z,99827.22
2022-08-17T21:48:27.145Z,99832.25
2022-08-17T21:51:02.870Z,99819.75
2022-08-17T21:53:38.813Z,99823.28
2022-08-17T21:56:08.038Z,99833.31
2022-08-17T21:58:41.044Z,99832.50
2022-08-17T22:01:24.778Z,99826.88
2022-08-17T22:04:03.213Z,99835.25
2022-08-17T22:06:35.931Z,99836.09
2022-08-17T22:09:11.470Z,99832.53
2022-08-17T22:11:52.539Z,99837.59
2022-08-17T22:14:23.567Z,99839.31
2022-08-17T22:17:10.694Z,99836.00
2022-08-17T22:19:40.623Z,99844.56
2022-08-17T22:22:11.991Z,99860.25
2022-08-17T22:24:38.822Z,99856.94
2022-08-17T22:27:13.012Z,99861.97
2022-08-17T22:29:57.653Z,99866.97
2022-08-17T22:32:37.551Z,99876.78
2022-08-17T22:35:29.768Z,99885.38
2022-08-17T22:37:58.916Z,99911.72
2022-08-17T22:40:30.493Z,99925.31
2022-08-17T22:43:00.107Z,99922.00
2022-08-17T22:45:31.203Z,99926.59
2022-08-17T22:48:02.037Z,99933.94
2022-08-17T22:50:33.148Z,99928.88
2022-08-17T22:53:21.332Z,99930.75
2022-08-17T22:56:09.195Z,99929.53
2022-08-17T22:59:01.848Z,99927.44
2022-08-17T23:01:34.777Z,99927.22
2022-08-17T23:04:05.784Z,99936.19
2022-08-17T23:06:35.627Z,99938.50
2022-08-17T23:09:05.760Z,99953.97
2022-08-17T23:11:49.837Z,99965.03
2022-08-17T23:14:20.206Z,99973.59
2022-08-17T23:16:50.937Z,99970.28
2022-08-17T23:19:21.084Z,99971.09
2022-08-17T23:21:53.756Z,99973.81
2022-08-17T23:24:26.429Z,99975.72
2022-08-17T23:26:57.094Z,99977.38
2022-08-17T23:29:25.040Z,99981.16
2022-08-17T23:31:55.112Z,99982.41
2022-08-17T23:34:24.206Z,99989.28
2022-08-17T23:36:53.119Z,99995.34
2022-08-17T23:39:27.359Z,99994.94
2022-08-17T23:41:58.676Z,99990.31
2022-08-17T23:44:27.368Z,99986.97
2022-08-17T23:46:56.680Z,99985.91
2022-08-17T23:49:25.113Z,99996.56
2022-08-17T23:51:53.623Z,99994.72
2022-08-17T23:54:25.028Z,99987.81
2022-08-17T23:56:52.880Z,99984.22
2022-08-17T23:59:23.487Z,99978.78
